createdAt,value
2022-10-25T00:03:05.433Z,9.61
2022-10-25T00:08:07.537Z,9.63
2022-10-25T00:13:09.063Z,9.65
2022-10-25T00:18:10.592Z,9.74
2022-10-25T00:23:15.261Z,9.84
2022-10-25T00:28:16.804Z,9.89
2022-10-25T00:33:18.308Z,9.87
2022-10-25T00:38:19.845Z,9.77
2022-10-25T00:43:37.605Z,9.82
2022-10-25T00:48:40.613Z,9.80
2022-10-25T00:53:42.802Z,9.71
2022-10-25T00:58:49.056Z,9.58
2022-10-25T01:03:53.977Z,9.55
2022-10-25T01:08:57.137Z,9.54
2022-10-25T01:13:59.047Z,9.55
2022-10-25T01:19:36.302Z,9.60
2022-10-25T01:24:49.901Z,9.72
2022-10-25T01:30:18.671Z,9.93
2022-10-25T01:35:28.129Z,10.03
2022-10-25T01:40:42.820Z,10.18
2022-10-25T01:45:58.276Z,10.32
2022-10-25T01:51:15.899Z,10.49
2022-10-25T01:56:29.347Z,10.59
2022-10-25T02:01:48.634Z,10.70
2022-10-25T02:06:53.065Z,10.79
2022-10-25T02:11:58.636Z,10.84
2022-10-25T02:17:24.498Z,10.88
2022-10-25T02:22:30.217Z,10.84
2022-10-25T02:27:33.444Z,10.81
2022-10-25T02:32:35.139Z,10.87
2022-10-25T02:37:36.659Z,10.96
2022-10-25T02:42:38.274Z,11.20
2022-10-25T02:47:39.896Z,11.43
2022-10-25T02:52:41.552Z,11.63
2022-10-25T02:57:43.088Z,11.71
2022-10-25T03:02:44.868Z,11.89
2022-10-25T03:07:46.615Z,12.10
2022-10-25T03:12:48.520Z,12.24
2022-10-25T03:17:50.418Z,12.38
2022-10-25T03:22:52.002Z,12.48
2022-10-25T03:27:53.630Z,12.57
2022-10-25T03:32:55.950Z,12.56
2022-10-25T03:37:57.523Z,12.38
2022-10-25T03:43:05.048Z,12.15
2022-10-25T03:48:06.799Z,11.95
2022-10-25T03:58:14.989Z,11.77
2022-10-25T04:03:16.574Z,11.56
2022-10-25T04:08:18.176Z,11.39
2022-10-25T04:13:19.725Z,11.24
2022-10-25T04:18:21.566Z,11.22
2022-10-25T04:23:23.101Z,11.27
2022-10-25T04:28:24.838Z,11.32
2022-10-25T04:33:26.411Z,11.45
2022-10-25T04:38:28.062Z,11.58
2022-10-25T04:43:29.655Z,11.71
2022-10-25T04:48:31.211Z,11.82
2022-10-25T04:53:32.909Z,11.91
2022-10-25T04:58:35.373Z,11.98
2022-10-25T05:03:37.041Z,11.96
2022-10-25T05:08:40.609Z,11.95
2022-10-25T05:13:43.072Z,11.97
2022-10-25T05:18:47.504Z,12.01
2022-10-25T05:23:49.292Z,11.97
2022-10-25T05:28:53.684Z,11.96
2022-10-25T05:33:57.745Z,11.77
2022-10-25T05:39:03.898Z,11.71
2022-10-25T05:44:06.030Z,11.62
2022-10-25T05:49:10.401Z,11.46
2022-10-25T05:54:14.165Z,11.27
2022-10-25T05:59:16.207Z,11.30
2022-10-25T06:04:18.282Z,11.39
2022-10-25T06:09:21.075Z,11.42
2022-10-25T06:14:22.658Z,11.42
2022-10-25T06:19:24.179Z,11.52
2022-10-25T06:24:25.886Z,11.50
2022-10-25T06:29:31.189Z,11.39
2022-10-25T06:34:32.756Z,11.32
2022-10-25T06:39:35.241Z,11.25
2022-10-25T06:44:36.809Z,11.23
2022-10-25T06:49:38.426Z,11.20
2022-10-25T06:54:39.985Z,11.22
2022-10-25T06:59:41.533Z,11.20
2022-10-25T07:04:43.066Z,11.15
2022-10-25T07:09:44.657Z,11.15
2022-10-25T07:14:46.229Z,11.23
2022-10-25T07:19:48.386Z,11.42
2022-10-25T07:24:50.092Z,11.55
2022-10-25T07:29:51.834Z,11.64
2022-10-25T07:34:53.418Z,11.77
2022-10-25T07:39:55.008Z,11.91
2022-10-25T07:44:56.524Z,12.10
2022-10-25T07:50:00.419Z,12.35
2022-10-25T07:55:02.018Z,12.53
2022-10-25T08:00:06.618Z,12.70
2022-10-25T08:05:09.471Z,12.94
2022-10-25T08:10:11.151Z,13.14
2022-10-25T08:15:18.267Z,13.34
2022-10-25T08:20:19.836Z,13.51
2022-10-25T08:25:29.903Z,13.66
2022-10-25T08:30:36.455Z,13.78
2022-10-25T08:35:38.497Z,13.96
2022-10-25T08:41:00.960Z,14.23
2022-10-25T08:46:44.913Z,14.45
2022-10-25T08:59:17.720Z,15.00
2022-10-25T09:04:20.432Z,15.23
2022-10-25T09:09:54.110Z,15.37
2022-10-25T09:15:14.688Z,15.43
2022-10-25T09:20:43.355Z,15.72
2022-10-25T09:26:04.666Z,16.12
2022-10-25T09:31:11.125Z,16.38
2022-10-25T09:36:22.147Z,16.51
2022-10-25T09:41:40.197Z,16.66
2022-10-25T09:47:09.814Z,16.76
2022-10-25T09:52:33.252Z,16.79
2022-10-25T09:57:35.332Z,16.88
2022-10-25T10:02:37.293Z,16.84
2022-10-25T10:07:41.374Z,17.10
2022-10-25T10:12:53.478Z,17.29
2022-10-25T10:23:21.468Z,17.21
2022-10-25T10:28:38.999Z,16.90
2022-10-25T10:33:49.144Z,16.76
2022-10-25T10:39:25.646Z,16.77
2022-10-25T10:44:38.570Z,16.92
2022-10-25T10:49:49.198Z,16.90
2022-10-25T10:54:51.266Z,17.13
2022-10-25T11:06:01.239Z,17.47
2022-10-25T11:11:23.076Z,17.73
2022-10-25T11:16:35.707Z,18.32
2022-10-25T11:22:09.747Z,18.38
2022-10-25T11:27:25.814Z,18.23
2022-10-25T11:32:40.497Z,18.60
2022-10-25T11:37:53.269Z,18.78
2022-10-25T11:43:18.879Z,18.86
2022-10-25T11:48:42.892Z,18.66
2022-10-25T11:53:53.249Z,18.58
2022-10-25T11:59:18.382Z,18.40
2022-10-25T12:04:53.480Z,18.39
2022-10-25T12:10:26.249Z,18.16
2022-10-25T12:15:40.718Z,17.89
2022-10-25T12:20:46.404Z,17.69
2022-10-25T12:26:07.199Z,17.55
2022-10-25T12:44:24.390Z,17.50
2022-10-25T12:50:08.891Z,17.50
2022-10-25T13:01:32.187Z,17.49
2022-10-25T13:07:14.759Z,17.47
2022-10-25T13:12:30.684Z,17.44
2022-10-25T13:17:38.593Z,17.39
2022-10-25T13:22:41.292Z,17.32
2022-10-25T13:28:13.921Z,17.29
2022-10-25T13:33:21.619Z,17.29
2022-10-25T13:38:38.047Z,17.20
2022-10-25T13:44:00.160Z,17.13
2022-10-25T13:49:21.759Z,17.13
2022-10-25T13:54:23.915Z,17.13
2022-10-25T14:00:04.144Z,17.09
2022-10-25T14:05:14.172Z,17.10
2022-10-25T14:10:21.298Z,17.08
2022-10-25T14:21:14.765Z,17.17
2022-10-25T14:26:17.249Z,17.15
2022-10-25T14:37:19.101Z,17.06
